• Join FlightAware (Why Join?)
  • Login
  • US Flag 
11:01PM EST


 

Airport Tracker/Info


-or-


 

Live Flight TrackerFlight Track Log ✈ UAL582 ✈ 08-May-2013 ✈ CYYZ - KORD

Flight Track Log - Related Links

Times and Time Zones

All times are in EDT time to prevent confusion due to time zone crossing. See the UAL582 flight status page for this flight to view local times or setup timezone preferences in your user account.

Time Position Orientation Groundspeed Altitude Reporting Facility
EDT Latitude Longitude Course Direction KTS MPH feet Rate Location/Type
05:07PM 43.6833 -79.5667 47° Northeast 120 138 2,000  Level Toronto Center
05:08PM 43.7167 -79.5167 47° Northeast 200 230 4,000 2,340 Climbing Toronto Center
05:09PM 43.7667 -79.5667 324° Northwest 240 276 6,700 1,500 Climbing Toronto Center
05:10PM 43.8333 -79.6333 324° Northwest 280 322 7,000 1,200 Climbing Toronto Center
05:11PM 43.8500 -79.7333 283° West 280 322 9,200 2,460 Climbing Toronto Center
05:12PM 43.8333 -79.8667 260° West 330 380 12,000 2,940 Climbing Toronto Center
05:13PM 43.8167 -79.9833 259° West 350 403 15,100 2,940 Climbing Toronto Center
05:14PM 43.8000 -80.1167 260° West 360 414 17,900 2,700 Climbing Toronto Center
05:15PM 43.7667 -80.2833 255° West 380 437 20,600 2,400 Climbing Toronto Center
05:16PM 43.7667 -80.4167 270° West 400 460 22,700 2,040 Climbing Toronto Center
05:17PM 43.7500 -80.5833 262° West 420 483 24,700 1,920 Climbing Toronto Center
05:18PM 43.7500 -80.7333 270° West 430 495 26,600 1,740 Climbing Toronto Center
05:19PM 43.7000 -80.9000 248° West 430 495 28,200 1,500 Climbing Toronto Center
05:20PM 43.6667 -81.0833 256° West 440 506 29,700 1,440 Climbing Toronto Center
05:21PM 43.6333 -81.2167 251° West 450 518 31,100 1,440 Climbing Toronto Center
05:22PM 43.5833 -81.4000 249° West 460 529 32,600 1,500 Climbing Toronto Center
05:23PM 43.5500 -81.5667 255° West 460 529 34,200 1,800 Climbing Toronto Center
05:24PM 43.5000 -81.7167 245° Southwest 440 506 36,300 1,500 Climbing Toronto Center
05:25PM 43.4667 -81.8833 255° West 430 495 37,200 840 Climbing Toronto Center
05:26PM 43.4167 -82.0500 248° West 430 495 38,000 480 Climbing Toronto Center
05:26PM 43.4081 -82.1492 263° West 441 507 38,000  Level Cleveland Center
05:27PM 43.3642 -82.3108 250° West 446 513 38,000  Level Cleveland Center
05:28PM 43.3333 -82.3667 233° Southwest 460 529 38,000  Level Toronto Center
05:29PM 43.3000 -82.5167 253° West 460 529 38,000  Level Toronto Center
05:29PM 43.2756 -82.6419 255° West 456 525 38,000  Level Cleveland Center
05:30PM 43.2328 -82.8114 251° West 467 537 38,000  Level Cleveland Center
05:31PM 43.1981 -82.9783 254° West 467 537 38,000  Level Cleveland Center
05:32PM 43.1675 -83.1422 256° West 453 521 38,000  Level Cleveland Center
05:33PM 43.1367 -83.3089 256° West 453 521 38,000  Level Cleveland Center
05:34PM 43.1033 -83.4750 255° West 453 521 38,000  Level Cleveland Center
05:35PM 43.0697 -83.6469 255° West 453 521 38,100  Climbing Cleveland Center
05:36PM 43.0383 -83.8103 255° West 453 521 38,000 -120 Descending Cleveland Center
05:38PM 42.9808 -84.1039 255° West 449 517 37,900 -600 Descending Chicago Center
05:39PM 42.9500 -84.1833 242° Southwest 450 518 36,600 -2,880 Descending Toronto Center
05:40PM 42.9167 -84.3667 256° West 450 518 33,700 -2,580 Descending Toronto Center
05:40PM 42.9150 -84.4322 268° West 450 518 32,500 -1,080 Descending Chicago Center
05:41PM 42.8819 -84.6036 255° West 464 534 32,000 -300 Descending Chicago Center
05:43PM 42.8600 -84.8108 262° West 462 532 32,000 -120 Level Chicago Center
05:44PM 42.8417 -84.9839 262° West 462 532 31,800 -600 Descending Chicago Center
05:45PM 42.8247 -85.1547 262° West 457 526 30,800 -900 Descending Chicago Center
05:46PM 42.8050 -85.3308 261° West 467 537 30,000 -420 Descending Chicago Center
05:47PM 42.7850 -85.5050 261° West 465 535 30,000 -60 Level Chicago Center
05:48PM 42.7536 -85.6758 256° West 462 532 29,900 -960 Descending Chicago Center
05:49PM 42.7169 -85.8808 256° West 462 532 28,100 -2,220 Descending Chicago Center
05:50PM 42.6878 -86.0436 256° West 444 511 25,300 -2,880 Descending Chicago Center
05:51PM 42.6578 -86.2033 256° West 436 502 22,100 -2,640 Descending Chicago Center
05:52PM 42.6283 -86.3586 256° West 427 491 19,900 -1,560 Descending Chicago Center
05:53PM 42.5997 -86.5103 256° West 415 478 18,900 -1,620 Descending Chicago Center
05:54PM 42.5719 -86.6578 256° West 405 466 16,600 -2,040 Descending Chicago Center
05:55PM 42.5419 -86.7978 254° West 393 452 14,800 -1,980 Descending Chicago Center
05:56PM 42.4975 -86.9581 249° West 381 438 12,600 -2,040 Descending Chicago Center
05:57PM 42.4608 -87.0864 249° West 367 422 10,700 -1,320 Descending Chicago Center
05:58PM 42.4283 -87.2039 249° West 340 391 9,900 -900 Descending Chicago Center
05:59PM 42.4019 -87.3039 250° West 292 336 8,900 -900 Descending Chicago Center
06:00PM 42.3650 -87.4014 243° Southwest 280 322 8,100 -960 Descending Chicago Center
06:01PM 42.3164 -87.4944 235° Southwest 278 320 7,000 -600 Descending Chicago Center
06:02PM 42.2681 -87.5850 234° Southwest 272 313 6,900 -300 Descending Chicago Center
06:03PM 42.2167 -87.6558 226° Southwest 269 310 6,400 -1,020 Descending Chicago Center
06:04PM 42.1583 -87.7197 219° Southwest 272 313 4,900 -1,620 Descending Chicago Center
06:05PM 42.1000 -87.7667 211° Southwest 246 283 3,400 -1,800 Descending Chicago TRACON